Time;durP1;ratioP1;P1;durP2;ratioP2;P2;SDS_P1;SDS_P2;PMS_P1;PMS_P2;Temp;Humidity;BMP_temperature;BMP_pressure;BME280_temperature;BME280_humidity;BME280_pressure;Samples;Min_cycle;Max_cycle;Signal;HPM_P1;HPM_P2
2021/07/12 00:01:31;;;;;;;10.82;8.82;;;;;;;21.94;98.20;100901.84;4988624;28;20077;-77
2021/07/12 00:03:57;;;;;;;11.63;8.82;;;;;;;21.90;98.39;100899.19;4992565;28;20177;-78
2021/07/12 00:06:22;;;;;;;11.32;8.77;;;;;;;22.01;97.18;100896.22;4990965;28;20630;-78
2021/07/12 00:08:48;;;;;;;18.30;8.80;;;;;;;22.03;97.02;100902.03;4993635;28;20031;-78
2021/07/12 00:11:13;;;;;;;11.40;8.85;;;;;;;21.96;97.39;100902.19;4991848;28;20947;-78
2021/07/12 00:13:39;;;;;;;12.48;8.60;;;;;;;22.04;96.36;100898.09;4994320;28;20030;-78
2021/07/12 00:16:04;;;;;;;9.93;8.40;;;;;;;22.12;95.78;100894.78;4995141;28;20034;-77
2021/07/12 00:18:30;;;;;;;11.90;8.90;;;;;;;21.96;96.74;100902.97;4992974;28;20056;-78
2021/07/12 00:20:57;;;;;;;12.57;8.70;;;;;;;21.93;96.56;100901.06;4973471;28;20034;-78
2021/07/12 00:23:22;;;;;;;13.55;8.60;;;;;;;21.90;96.77;100895.66;4986399;28;20487;-78
2021/07/12 00:25:48;;;;;;;10.68;8.85;;;;;;;21.91;96.62;100894.47;4957359;28;20049;-78
2021/07/12 00:28:14;;;;;;;13.65;8.35;;;;;;;21.91;96.00;100897.22;4988996;28;20105;-78
2021/07/12 00:30:39;;;;;;;14.98;8.60;;;;;;;21.82;97.24;100891.53;4976193;28;20069;-77
2021/07/12 00:33:05;;;;;;;13.40;8.38;;;;;;;21.75;97.51;100892.44;4986224;28;20096;-78
2021/07/12 00:35:30;;;;;;;12.57;8.25;;;;;;;21.70;97.81;100895.66;4988128;28;20045;-77
2021/07/12 00:37:56;;;;;;;13.57;8.60;;;;;;;21.85;96.54;100898.91;4974659;28;20035;-76
2021/07/12 00:40:24;;;;;;;12.80;8.23;;;;;;;21.83;96.23;100893.88;4989107;28;20117;-76
2021/07/12 00:42:50;;;;;;;10.98;8.75;;;;;;;21.74;96.91;100892.88;4986669;28;20035;-76
2021/07/12 00:45:25;;;;;;;9.93;8.20;;;;;;;21.64;97.23;100902.84;4989227;28;20037;-76
2021/07/12 00:47:53;;;;;;;9.35;7.70;;;;;;;21.58;97.47;100897.09;4990967;28;20031;-76
2021/07/12 00:50:22;;;;;;;10.38;8.07;;;;;;;21.58;97.63;100901.81;4990929;28;20034;-76
2021/07/12 00:52:50;;;;;;;11.60;8.38;;;;;;;21.57;97.17;100889.28;4989517;28;20113;-76
2021/07/12 00:55:44;;;;;;;9.40;7.90;;;;;;;21.46;97.51;100886.78;4987270;28;20117;-76
2021/07/12 00:58:12;;;;;;;10.45;8.23;;;;;;;21.53;97.81;100885.84;4991196;28;20053;-76
2021/07/12 01:00:41;;;;;;;19.15;7.97;;;;;;;21.58;97.58;100883.38;4978935;28;20046;-76
2021/07/12 01:03:08;;;;;;;13.93;8.00;;;;;;;21.56;97.28;100896.75;4989202;28;20034;-76
2021/07/12 01:05:37;;;;;;;11.55;8.23;;;;;;;21.47;97.67;100893.81;4990057;28;20034;-76
2021/07/12 01:08:04;;;;;;;10.27;8.35;;;;;;;21.43;97.59;100889.56;4989681;28;20038;-76
2021/07/12 01:10:35;;;;;;;11.93;8.88;;;;;;;21.38;97.83;100890.09;4976251;28;20035;-76
2021/07/12 01:13:28;;;;;;;11.02;8.10;;;;;;;21.27;97.80;100890.28;4987401;28;20046;-76
2021/07/12 01:16:27;;;;;;;12.50;8.45;;;;;;;21.22;98.40;100882.56;4982112;28;20365;-76
2021/07/12 01:18:57;;;;;;;10.25;7.55;;;;;;;21.32;98.17;100892.56;4999612;28;20038;-76
2021/07/12 01:22:00;;;;;;;12.23;8.18;;;;;;;21.22;98.03;100892.75;4991384;28;20041;-76
2021/07/12 01:25:07;;;;;;;11.57;8.07;;;;;;;21.25;97.40;100895.41;4982547;28;20031;-76
2021/07/12 01:28:16;;;;;;;11.93;8.30;;;;;;;21.17;98.59;100896.75;4952134;28;20388;-76
2021/07/12 01:31:03;;;;;;;12.90;8.30;;;;;;;21.13;98.87;100898.00;4993591;28;20060;-76
2021/07/12 01:33:42;;;;;;;9.98;7.75;;;;;;;21.05;99.20;100902.84;4974036;28;20074;-76
2021/07/12 01:36:44;;;;;;;9.07;7.78;;;;;;;20.96;99.30;100901.84;4986089;28;20037;-76
2021/07/12 01:39:21;;;;;;;18.40;7.55;;;;;;;20.83;100.00;100895.44;4993772;28;20030;-76
2021/07/12 01:42:01;;;;;;;13.23;7.88;;;;;;;20.66;100.00;100892.56;5000349;28;20109;-76
2021/07/12 01:44:55;;;;;;;10.48;8.20;;;;;;;20.64;100.00;100894.94;4994163;28;20057;-76
2021/07/12 01:47:41;;;;;;;13.55;8.02;;;;;;;20.68;100.00;100892.16;4989048;28;20050;-76
2021/07/12 01:50:33;;;;;;;15.27;8.77;;;;;;;20.69;100.00;100886.25;4993334;28;20034;-76
2021/07/12 01:53:16;;;;;;;12.15;8.45;;;;;;;20.74;99.95;100878.75;4974931;28;20116;-76
2021/07/12 01:56:01;;;;;;;13.68;8.50;;;;;;;20.66;100.00;100881.63;4980065;28;20026;-76
2021/07/12 01:58:42;;;;;;;9.68;7.97;;;;;;;20.63;100.00;100873.47;5003730;28;20184;-76
2021/07/12 02:01:11;;;;;;;10.80;8.05;;;;;;;20.68;100.00;100864.78;4994931;28;20557;-76
2021/07/12 02:03:37;;;;;;;12.52;7.90;;;;;;;20.71;100.00;100866.69;5000687;28;20037;-76
2021/07/12 02:06:08;;;;;;;9.55;7.82;;;;;;;20.70;100.00;100865.13;4982238;28;20162;-76
2021/07/12 02:08:41;;;;;;;10.48;8.50;;;;;;;20.69;100.00;100869.06;4985320;28;20570;-76
2021/07/12 02:11:15;;;;;;;11.05;8.20;;;;;;;20.73;100.00;100864.28;4997553;23;20097;-76
2021/07/12 02:13:44;;;;;;;13.35;8.23;;;;;;;20.68;100.00;100859.28;4989177;28;20033;-76
2021/07/12 02:16:18;;;;;;;10.70;8.48;;;;;;;20.68;100.00;100853.81;4986640;28;20030;-76
2021/07/12 02:18:46;;;;;;;13.35;7.95;;;;;;;20.65;100.00;100858.16;5008994;28;20049;-76
2021/07/12 02:21:39;;;;;;;11.00;7.47;;;;;;;20.60;100.00;100855.91;4971583;28;20125;-76
2021/07/12 02:24:17;;;;;;;12.88;7.82;;;;;;;20.50;100.00;100850.59;4982638;28;20042;-76
2021/07/12 02:26:44;;;;;;;11.98;8.65;;;;;;;20.59;100.00;100848.91;4984843;28;20026;-76
2021/07/12 02:29:12;;;;;;;12.55;8.60;;;;;;;20.57;100.00;100850.50;4997978;28;20567;-76
2021/07/12 02:31:40;;;;;;;12.43;8.55;;;;;;;20.55;100.00;100842.72;4977380;28;20035;-76
2021/07/12 02:34:09;;;;;;;13.63;8.63;;;;;;;20.58;100.00;100852.03;4969574;28;20487;-76
2021/07/12 02:36:40;;;;;;;13.75;8.32;;;;;;;20.53;100.00;100841.56;4980446;28;20108;-76
2021/07/12 02:39:10;;;;;;;12.27;8.57;;;;;;;20.55;100.00;100839.97;4967790;28;20038;-76
2021/07/12 02:41:37;;;;;;;10.93;8.10;;;;;;;20.61;100.00;100837.53;4968670;28;20031;-76
2021/07/12 02:44:07;;;;;;;9.73;8.27;;;;;;;20.49;100.00;100844.38;4970529;28;20033;-76
2021/07/12 02:46:32;;;;;;;12.98;8.50;;;;;;;20.42;100.00;100838.25;4971266;28;20032;-76
2021/07/12 02:48:58;;;;;;;11.15;7.57;;;;;;;20.39;100.00;100828.13;4962433;28;20047;-76
2021/07/12 02:51:33;;;;;;;10.40;7.78;;;;;;;20.36;100.00;100829.72;4976046;28;20030;-76
2021/07/12 02:54:06;;;;;;;10.15;8.32;;;;;;;20.39;100.00;100839.06;4988711;28;20030;-76
2021/07/12 02:56:32;;;;;;;14.55;8.55;;;;;;;20.44;100.00;100831.16;4975382;28;20479;-76
2021/07/12 02:58:58;;;;;;;16.42;7.88;;;;;;;20.37;100.00;100827.78;5002164;28;20027;-76
2021/07/12 03:01:26;;;;;;;12.95;8.18;;;;;;;20.42;100.00;100821.84;4988035;28;20027;-76
2021/07/12 03:03:51;;;;;;;16.40;8.15;;;;;;;20.38;100.00;100827.34;4980435;28;20380;-76
2021/07/12 03:06:20;;;;;;;10.63;7.93;;;;;;;20.38;100.00;100821.13;4986526;28;20132;-76
2021/07/12 03:09:11;;;;;;;12.93;8.50;;;;;;;20.37;100.00;100827.78;4973663;28;20035;-76
2021/07/12 03:11:46;;;;;;;13.20;8.10;;;;;;;20.34;100.00;100823.16;4971183;28;20514;-76
2021/07/12 03:14:19;;;;;;;9.38;7.93;;;;;;;20.31;100.00;100813.81;4977895;28;20046;-76
2021/07/12 03:16:49;;;;;;;11.00;8.05;;;;;;;20.27;100.00;100824.03;4955382;28;20077;-76
2021/07/12 03:19:24;;;;;;;11.13;8.48;;;;;;;20.29;100.00;100821.66;4970680;28;20043;-76
2021/07/12 03:21:53;;;;;;;10.82;8.02;;;;;;;20.30;100.00;100822.44;4959137;28;20062;-76
2021/07/12 03:24:19;;;;;;;11.80;8.43;;;;;;;20.29;100.00;100820.88;4985845;28;20588;-76
2021/07/12 03:26:52;;;;;;;11.20;8.05;;;;;;;20.32;100.00;100826.31;4978617;28;20039;-76
2021/07/12 03:29:19;;;;;;;10.63;7.90;;;;;;;20.26;100.00;100816.25;4975958;28;20454;-76
2021/07/12 03:31:47;;;;;;;9.73;8.10;;;;;;;20.29;100.00;100815.41;4990442;28;20066;-76
2021/07/12 03:34:16;;;;;;;12.32;8.13;;;;;;;20.22;100.00;100815.53;4971062;28;20137;-76
2021/07/12 03:36:44;;;;;;;14.75;8.30;;;;;;;20.24;100.00;100813.94;4986441;28;20019;-76
2021/07/12 03:39:10;;;;;;;10.02;8.20;;;;;;;20.16;100.00;100815.19;4973998;28;20089;-76
2021/07/12 03:41:37;;;;;;;10.20;7.82;;;;;;;20.28;100.00;100813.88;4982230;28;20035;-76
2021/07/12 03:44:05;;;;;;;11.55;8.07;;;;;;;20.33;100.00;100805.16;4986596;28;20054;-76
2021/07/12 03:46:31;;;;;;;12.40;8.57;;;;;;;20.35;100.00;100816.47;4992216;28;20034;-76
2021/07/12 03:48:58;;;;;;;10.65;8.10;;;;;;;20.25;100.00;100811.94;4971460;28;20047;-76
2021/07/12 03:51:28;;;;;;;10.95;7.90;;;;;;;20.29;100.00;100812.66;4972361;28;20663;-76
2021/07/12 03:53:58;;;;;;;11.05;8.35;;;;;;;20.27;100.00;100813.09;4944301;28;20121;-76
2021/07/12 03:56:24;;;;;;;10.63;7.88;;;;;;;20.47;100.00;100818.63;4968646;28;20118;-76
2021/07/12 03:58:49;;;;;;;12.05;7.80;;;;;;;20.46;100.00;100815.09;4978386;28;20085;-76
2021/07/12 04:01:19;;;;;;;11.73;7.82;;;;;;;20.45;100.00;100808.09;4963678;28;20027;-76
2021/07/12 04:03:49;;;;;;;11.40;8.35;;;;;;;20.57;99.66;100809.44;4954154;28;20038;-76
2021/07/12 04:06:15;;;;;;;15.13;8.25;;;;;;;20.53;100.00;100808.75;4980604;28;20031;-76
2021/07/12 04:08:40;;;;;;;11.35;8.05;;;;;;;20.61;99.62;100796.47;4960713;28;20038;-76
2021/07/12 04:11:06;;;;;;;14.07;8.50;;;;;;;20.55;100.00;100795.41;4986168;28;20043;-76
2021/07/12 04:13:31;;;;;;;10.45;8.40;;;;;;;20.55;100.00;100798.16;4969580;28;20038;-76
2021/07/12 04:15:57;;;;;;;11.70;8.43;;;;;;;20.48;100.00;100801.00;4971512;28;20030;-76
2021/07/12 04:18:22;;;;;;;11.20;8.38;;;;;;;20.62;100.00;100798.78;4970756;28;20427;-76
2021/07/12 04:20:48;;;;;;;13.30;8.02;;;;;;;20.63;100.00;100796.81;4970368;28;20218;-76
2021/07/12 04:23:14;;;;;;;10.55;8.15;;;;;;;20.53;100.00;100797.78;4971326;28;20043;-76
2021/07/12 04:25:40;;;;;;;10.70;8.02;;;;;;;20.53;100.00;100797.78;4981217;28;20031;-76
2021/07/12 04:28:05;;;;;;;9.98;7.93;;;;;;;20.60;100.00;100798.44;4965581;28;20046;-76
2021/07/12 04:30:31;;;;;;;11.15;7.80;;;;;;;20.79;99.26;100793.41;4961031;28;20551;-76
2021/07/12 04:32:57;;;;;;;11.50;7.93;;;;;;;20.71;99.52;100794.72;4958175;28;20118;-76
2021/07/12 04:35:23;;;;;;;10.48;7.78;;;;;;;20.70;99.87;100804.91;4969679;28;20034;-76
2021/07/12 04:37:49;;;;;;;11.80;7.85;;;;;;;20.69;100.00;100812.34;4961492;28;20066;-76
2021/07/12 04:40:17;;;;;;;12.00;7.80;;;;;;;20.75;100.00;100796.19;4979833;28;20521;-76
2021/07/12 04:42:43;;;;;;;8.90;7.50;;;;;;;20.80;99.89;100795.72;4972019;28;20031;-76
2021/07/12 04:45:09;;;;;;;8.70;7.63;;;;;;;20.85;99.97;100799.94;4970093;28;20042;-76
2021/07/12 04:47:37;;;;;;;9.50;7.82;;;;;;;20.82;99.76;100798.81;4964439;28;20434;-76
2021/07/12 04:50:05;;;;;;;9.07;7.88;;;;;;;20.87;99.62;100790.09;4974002;28;20113;-76
2021/07/12 04:52:31;;;;;;;10.00;7.88;;;;;;;20.99;98.34;100786.72;4969024;28;20031;-76
2021/07/12 04:54:57;;;;;;;13.30;7.97;;;;;;;20.93;98.97;100796.63;4964469;28;20035;-76
2021/07/12 04:57:22;;;;;;;10.73;8.05;;;;;;;20.84;99.44;100788.22;4973609;28;20030;-76
2021/07/12 04:59:48;;;;;;;8.65;7.68;;;;;;;20.88;99.78;100786.19;4968971;28;20105;-76
2021/07/12 05:02:14;;;;;;;11.25;7.40;;;;;;;20.96;99.93;100787.59;4970288;28;20122;-76
2021/07/12 05:04:40;;;;;;;9.82;7.85;;;;;;;20.98;100.00;100785.16;4970459;28;20050;-76
2021/07/12 05:07:06;;;;;;;9.10;7.40;;;;;;;21.19;98.59;100792.22;4960096;28;20407;-76
2021/07/12 05:09:32;;;;;;;12.02;7.68;;;;;;;21.20;99.00;100783.56;4959958;28;20043;-76
2021/07/12 05:11:58;;;;;;;10.30;7.60;;;;;;;21.24;98.50;100787.00;4975380;28;20034;-76
2021/07/12 05:14:25;;;;;;;11.48;7.63;;;;;;;21.35;98.13;100798.50;4975049;28;20035;-76
2021/07/12 05:16:52;;;;;;;9.18;7.10;;;;;;;21.41;98.25;100799.56;4972540;28;20046;-76
2021/07/12 05:19:18;;;;;;;11.27;7.45;;;;;;;21.99;96.40;100802.59;4973192;28;20035;-76
2021/07/12 05:21:44;;;;;;;9.73;6.95;;;;;;;22.86;91.98;100799.53;4989548;28;20173;-76
2021/07/12 05:24:10;;;;;;;7.35;6.15;;;;;;;23.85;87.20;100805.63;4989624;28;20070;-76
2021/07/12 05:26:35;;;;;;;7.40;6.60;;;;;;;24.86;81.70;100800.69;4963457;28;20751;-76
2021/07/12 05:29:01;;;;;;;7.82;5.93;;;;;;;25.55;77.04;100800.50;4958456;28;20134;-76
2021/07/12 05:31:26;;;;;;;9.85;6.30;;;;;;;25.94;75.41;100794.16;4957834;28;20242;-76
2021/07/12 05:33:52;;;;;;;7.93;5.53;;;;;;;26.45;72.83;100786.13;4967713;28;20038;-76
2021/07/12 05:36:18;;;;;;;8.75;5.95;;;;;;;26.77;71.61;100797.38;4973405;28;20042;-76
2021/07/12 05:38:43;;;;;;;8.57;5.63;;;;;;;26.99;70.89;100801.94;4976897;28;20034;-76
2021/07/12 05:41:09;;;;;;;12.65;5.80;;;;;;;27.34;68.63;100794.81;4980396;28;20039;-76
2021/07/12 05:43:35;;;;;;;6.88;5.70;;;;;;;27.43;68.87;100803.09;4959251;28;20038;-76
2021/07/12 05:46:01;;;;;;;6.90;5.75;;;;;;;27.60;67.56;100790.44;4964659;28;20492;-76
2021/07/12 05:48:27;;;;;;;7.43;5.68;;;;;;;27.11;70.90;100801.00;4981133;28;20039;-76
2021/07/12 05:50:52;;;;;;;7.97;5.65;;;;;;;27.33;69.62;100794.06;4971970;28;20110;-76
2021/07/12 05:53:18;;;;;;;6.13;5.35;;;;;;;27.78;67.68;100795.13;4960224;28;20037;-76
2021/07/12 05:55:44;;;;;;;9.70;5.28;;;;;;;28.16;65.15;100784.91;4963653;28;20126;-77
2021/07/12 05:58:10;;;;;;;6.95;5.90;;;;;;;28.31;64.08;100788.50;4981184;28;20077;-76
2021/07/12 06:00:36;;;;;;;6.22;5.35;;;;;;;28.23;64.81;100790.09;4969118;28;20442;-76
2021/07/12 06:03:01;;;;;;;7.80;5.47;;;;;;;28.53;64.06;100788.91;4973605;28;20385;-76
2021/07/12 06:05:27;;;;;;;8.88;5.60;;;;;;;28.52;62.81;100790.19;4962958;28;20041;-76
2021/07/12 06:07:52;;;;;;;6.90;5.68;;;;;;;28.52;64.02;100783.84;4963716;28;20047;-77
2021/07/12 06:10:19;;;;;;;8.85;5.57;;;;;;;28.29;63.53;100779.13;4966946;28;20038;-77
2021/07/12 06:12:45;;;;;;;11.35;5.65;;;;;;;28.20;64.94;100785.47;4994975;28;20057;-76
2021/07/12 06:15:10;;;;;;;8.75;5.70;;;;;;;28.29;65.15;100785.44;4988369;28;20034;-76
2021/07/12 06:17:36;;;;;;;7.28;5.40;;;;;;;28.14;63.93;100781.84;4968405;28;20031;-76
2021/07/12 06:20:03;;;;;;;5.85;5.28;;;;;;;28.18;64.52;100785.22;4966775;28;20073;-76
2021/07/12 06:22:29;;;;;;;6.15;5.47;;;;;;;28.03;64.49;100786.38;4968962;28;20114;-76
2021/07/12 06:24:54;;;;;;;5.97;5.40;;;;;;;27.97;65.79;100785.50;4970825;28;20121;-77
2021/07/12 06:27:20;;;;;;;7.00;5.45;;;;;;;27.99;67.06;100788.56;4965102;28;20115;-76
2021/07/12 06:29:46;;;;;;;8.23;6.00;;;;;;;28.01;66.23;100781.31;4971222;28;20039;-76
2021/07/12 06:32:11;;;;;;;9.40;5.80;;;;;;;28.07;63.94;100789.72;4972017;28;20631;-75
2021/07/12 06:34:37;;;;;;;8.48;6.18;;;;;;;27.89;65.66;100784.28;4966839;28;20045;-75
2021/07/12 06:37:22;;;;;;;6.50;5.68;;;;;;;27.87;66.19;100792.28;4970284;28;20554;-76
2021/07/12 06:39:48;;;;;;;6.68;6.00;;;;;;;27.94;66.51;100789.16;4902907;29;20048;-75
2021/07/12 06:42:14;;;;;;;8.57;5.85;;;;;;;28.02;66.04;100793.94;4911905;29;20056;-75
2021/07/12 06:44:39;;;;;;;5.85;5.32;;;;;;;27.96;67.64;100783.94;4906090;29;20514;-75
2021/07/12 06:47:05;;;;;;;8.25;5.88;;;;;;;27.99;66.59;100789.31;4896118;29;20115;-75
2021/07/12 06:49:31;;;;;;;7.85;6.05;;;;;;;27.82;67.82;100779.84;4896227;29;20040;-76
2021/07/12 06:51:57;;;;;;;7.40;6.30;;;;;;;27.86;69.06;100783.22;4905619;29;20040;-76
2021/07/12 06:54:22;;;;;;;9.45;5.53;;;;;;;27.82;67.89;100779.06;4892915;29;20043;-76
2021/07/12 06:56:48;;;;;;;8.45;6.47;;;;;;;27.79;67.87;100780.03;4905236;29;20602;-76
2021/07/12 06:59:13;;;;;;;8.05;6.15;;;;;;;27.72;69.18;100769.31;4906196;29;20044;-76
2021/07/12 07:01:41;;;;;;;8.13;5.95;;;;;;;27.83;70.04;100766.78;4908149;29;20385;-76
2021/07/12 07:04:07;;;;;;;7.60;6.18;;;;;;;27.69;68.79;100771.00;4904128;29;20413;-76
2021/07/12 07:06:32;;;;;;;7.22;6.22;;;;;;;27.81;67.68;100764.47;4910988;29;20043;-76
2021/07/12 07:08:58;;;;;;;7.18;5.75;;;;;;;27.93;68.23;100766.25;4903618;29;20160;-77
2021/07/12 07:11:23;;;;;;;6.88;6.03;;;;;;;27.95;68.50;100761.03;4891996;29;20047;-76
2021/07/12 07:13:49;;;;;;;10.15;6.03;;;;;;;27.90;69.23;100756.09;4910481;29;20051;-77
2021/07/12 07:16:15;;;;;;;7.18;5.53;;;;;;;27.97;68.99;100755.03;4904112;29;20051;-76
2021/07/12 07:18:40;;;;;;;6.57;5.88;;;;;;;27.79;68.11;100761.41;4967882;28;20110;-76
2021/07/12 07:21:09;;;;;;;7.57;5.57;;;;;;;27.95;69.38;100744.41;4962234;28;20065;-76
2021/07/12 07:23:34;;;;;;;8.57;6.13;;;;;;;28.04;68.58;100749.91;4962565;28;20071;-76
2021/07/12 07:26:00;;;;;;;6.68;5.93;;;;;;;28.20;67.51;100757.03;4957537;28;20042;-76
2021/07/12 07:28:25;;;;;;;7.95;6.10;;;;;;;28.22;66.05;100746.97;4971417;28;20030;-76
2021/07/12 07:30:52;;;;;;;8.13;6.00;;;;;;;28.22;65.71;100746.97;4961275;28;20039;-76
2021/07/12 07:33:18;;;;;;;7.28;6.35;;;;;;;28.23;67.44;100748.53;4965993;28;20031;-76
2021/07/12 07:35:44;;;;;;;6.93;6.18;;;;;;;28.15;68.19;100744.56;4961769;28;20046;-76
2021/07/12 07:38:10;;;;;;;8.07;6.43;;;;;;;28.15;67.90;100741.03;4967105;28;20066;-76
2021/07/12 07:40:36;;;;;;;9.95;6.00;;;;;;;28.16;69.99;100737.81;4963671;28;20046;-76
2021/07/12 07:43:03;;;;;;;7.20;5.93;;;;;;;28.39;69.06;100739.78;4975322;28;20381;-76
2021/07/12 07:45:31;;;;;;;9.90;6.07;;;;;;;28.36;68.42;100732.41;4973148;28;20594;-76
2021/07/12 07:47:57;;;;;;;6.97;6.07;;;;;;;28.53;68.72;100746.59;4964103;28;20035;-76
2021/07/12 07:50:23;;;;;;;7.53;6.03;;;;;;;28.66;67.90;100738.00;4972173;28;20030;-76
2021/07/12 07:52:50;;;;;;;9.13;5.97;;;;;;;28.73;67.23;100740.41;4975033;28;20125;-76
2021/07/12 07:55:16;;;;;;;8.40;6.10;;;;;;;28.77;66.25;100740.97;4969495;28;20695;-76
2021/07/12 07:57:42;;;;;;;6.93;6.22;;;;;;;28.74;65.49;100726.06;4981022;28;20121;-76
2021/07/12 08:00:38;;;;;;;7.30;6.32;;;;;;;28.69;65.20;100737.06;4971661;28;20158;-76
2021/07/12 08:03:05;;;;;;;8.82;5.95;;;;;;;28.82;67.46;100727.22;4910160;29;20099;-76
2021/07/12 08:05:31;;;;;;;11.52;6.20;;;;;;;29.01;65.37;100736.09;4904791;29;20765;-76
2021/07/12 08:07:57;;;;;;;7.80;6.72;;;;;;;28.74;64.12;100737.16;4904881;29;20052;-76
2021/07/12 08:10:23;;;;;;;6.82;6.22;;;;;;;28.92;66.39;100734.19;4953131;23;20560;-76
2021/07/12 08:12:49;;;;;;;8.75;5.93;;;;;;;28.96;63.82;100725.69;5006866;28;20080;-77
2021/07/12 08:15:16;;;;;;;8.65;6.55;;;;;;;28.98;64.11;100725.97;5001649;28;20545;-76
2021/07/12 08:17:43;;;;;;;21.88;6.28;;;;;;;29.14;64.85;100731.81;5009651;28;20513;-76
2021/07/12 08:20:11;;;;;;;6.13;5.53;;;;;;;29.13;63.74;100735.81;5004436;28;20030;-76
2021/07/12 08:22:37;;;;;;;8.02;5.88;;;;;;;29.22;63.08;100732.19;4995975;28;20075;-76
2021/07/12 08:25:04;;;;;;;6.50;5.70;;;;;;;29.40;61.86;100741.03;4992304;28;20541;-76
2021/07/12 08:27:31;;;;;;;8.55;5.88;;;;;;;29.13;61.03;100729.53;4992474;28;20450;-77
2021/07/12 08:29:57;;;;;;;10.13;5.88;;;;;;;29.03;62.39;100722.53;4991037;28;20477;-76
2021/07/12 08:32:22;;;;;;;6.68;5.75;;;;;;;29.12;62.11;100733.50;4959721;28;20065;-76
2021/07/12 08:34:48;;;;;;;5.97;5.40;;;;;;;29.22;62.64;100732.19;4982993;28;20492;-76
2021/07/12 08:37:13;;;;;;;8.07;5.90;;;;;;;29.42;64.11;100733.00;4982190;28;20041;-77
2021/07/12 08:39:39;;;;;;;6.75;5.43;;;;;;;29.70;62.00;100727.84;4984532;28;20034;-77
2021/07/12 08:42:05;;;;;;;7.47;5.60;;;;;;;29.87;60.70;100725.31;4985329;28;20026;-76
2021/07/12 08:44:31;;;;;;;8.15;5.90;;;;;;;29.98;59.99;100715.13;4991495;28;20034;-76
2021/07/12 08:46:57;;;;;;;6.70;5.28;;;;;;;29.96;62.70;100719.63;4985852;28;20037;-75
2021/07/12 08:49:24;;;;;;;6.40;5.43;;;;;;;30.27;62.40;100714.97;4981663;28;20034;-76
2021/07/12 08:51:49;;;;;;;9.45;5.80;;;;;;;30.25;61.87;100711.13;4996337;28;20099;-76
2021/07/12 08:54:16;;;;;;;5.85;5.22;;;;;;;30.44;61.30;100712.38;4994621;28;20026;-76
2021/07/12 08:56:42;;;;;;;6.28;5.20;;;;;;;30.33;59.86;100709.47;4987142;28;20042;-76
2021/07/12 08:59:41;;;;;;;8.55;4.90;;;;;;;30.33;55.94;100717.06;4983432;28;20380;-76
2021/07/12 09:02:19;;;;;;;6.13;4.90;;;;;;;30.60;55.81;100713.78;4953434;28;20692;-76
2021/07/12 09:04:46;;;;;;;9.52;5.40;;;;;;;30.66;58.55;100715.34;4994272;28;20124;-76
2021/07/12 09:07:14;;;;;;;10.02;4.95;;;;;;;30.79;55.94;100710.19;4978315;28;20170;-76
2021/07/12 09:09:39;;;;;;;7.07;5.70;;;;;;;30.91;55.26;100709.03;4989431;28;20096;-76
2021/07/12 09:12:16;;;;;;;10.15;5.35;;;;;;;30.87;56.53;100708.50;4981355;28;20125;-76
2021/07/12 09:15:02;;;;;;;6.80;5.35;;;;;;;30.84;57.10;100717.06;4979433;28;20038;-76
2021/07/12 09:17:33;;;;;;;8.30;5.53;;;;;;;30.98;56.05;100718.97;4974922;28;20030;-77
2021/07/12 09:19:59;;;;;;;8.32;5.20;;;;;;;30.68;56.29;100709.31;4986690;28;20034;-76
2021/07/12 09:22:33;;;;;;;9.63;5.85;;;;;;;30.68;57.22;100709.31;4987095;28;20045;-76
2021/07/12 09:25:01;;;;;;;9.75;5.50;;;;;;;30.58;56.50;100705.16;4997147;28;20046;-76
2021/07/12 09:27:29;;;;;;;6.47;5.32;;;;;;;30.85;58.91;100704.69;5002649;28;20026;-76
2021/07/12 09:30:08;;;;;;;8.70;5.28;;;;;;;30.91;56.08;100702.72;4992928;28;20046;-76
2021/07/12 09:32:36;;;;;;;9.52;5.10;;;;;;;30.95;55.84;100708.81;4989262;28;20049;-76
2021/07/12 09:35:07;;;;;;;9.35;5.60;;;;;;;30.98;56.45;100705.81;4984292;28;20169;-76
2021/07/12 09:37:35;;;;;;;6.22;5.00;;;;;;;30.72;55.51;100704.31;4978594;28;20403;-76
2021/07/12 09:40:21;;;;;;;8.65;5.70;;;;;;;31.07;54.89;100696.50;4979287;28;20506;-76
2021/07/12 09:42:48;;;;;;;7.18;4.63;;;;;;;30.90;56.99;100685.25;4927952;29;20633;-76
2021/07/12 09:45:17;;;;;;;6.70;5.30;;;;;;;31.37;58.65;100681.06;4903719;29;20801;-76
2021/07/12 09:47:45;;;;;;;5.80;4.95;;;;;;;31.57;56.99;100689.25;4911645;29;20064;-76
2021/07/12 09:50:13;;;;;;;7.47;5.28;;;;;;;31.67;54.88;100687.78;4933269;29;20795;-76
2021/07/12 09:52:43;;;;;;;5.35;4.90;;;;;;;31.80;53.89;100682.50;4921705;29;20043;-77
2021/07/12 09:55:23;;;;;;;5.50;4.90;;;;;;;31.90;52.63;100683.09;4936593;29;20092;-76
2021/07/12 09:58:07;;;;;;;10.30;5.40;;;;;;;31.90;51.37;100683.09;4924195;29;20072;-76
2021/07/12 10:00:34;;;;;;;7.70;4.80;;;;;;;31.63;52.97;100675.38;4932414;29;20047;-76
2021/07/12 10:03:00;;;;;;;5.15;4.40;;;;;;;31.62;52.51;100671.81;4907922;29;20032;-77
2021/07/12 10:05:26;;;;;;;7.10;4.95;;;;;;;31.75;53.33;100672.13;4920743;29;20040;-77
2021/07/12 10:07:52;;;;;;;5.32;4.82;;;;;;;31.97;53.42;100665.91;4900546;29;20484;-76
2021/07/12 10:10:18;;;;;;;4.90;4.50;;;;;;;31.90;51.72;100664.31;4927322;28;21007;-77
2021/07/12 10:12:45;;;;;;;4.82;4.28;;;;;;;31.71;50.86;100668.03;4912308;29;20090;-76
2021/07/12 10:15:15;;;;;;;7.78;4.32;;;;;;;31.93;50.35;100660.56;4924754;29;20063;-75
2021/07/12 10:17:44;;;;;;;4.70;4.30;;;;;;;31.94;51.16;100667.66;4926902;29;20046;-76
2021/07/12 10:20:12;;;;;;;8.60;3.85;;;;;;;31.91;50.35;100651.94;4961936;28;20046;-76
2021/07/12 10:22:42;;;;;;;5.45;4.07;;;;;;;31.85;48.62;100648.34;4979182;28;20031;-76
2021/07/12 10:25:13;;;;;;;10.05;4.22;;;;;;;31.72;50.03;100656.41;4987428;28;20486;-75
2021/07/12 10:27:53;;;;;;;4.38;3.85;;;;;;;31.40;50.76;100646.63;4983323;28;20038;-75
2021/07/12 10:30:40;;;;;;;5.00;4.50;;;;;;;31.21;49.98;100639.13;4988256;28;20509;-75
2021/07/12 10:33:10;;;;;;;8.20;4.38;;;;;;;31.43;49.87;100628.16;4983572;28;20384;-75
2021/07/12 10:35:54;;;;;;;4.80;4.25;;;;;;;31.61;49.62;100625.69;4985022;28;20070;-75
2021/07/12 10:38:43;;;;;;;6.47;4.70;;;;;;;31.62;50.81;100629.25;4988754;28;20061;-75
2021/07/12 10:41:22;;;;;;;6.15;4.53;;;;;;;31.47;49.45;100625.91;4998267;28;20042;-75
2021/07/12 10:43:57;;;;;;;7.55;4.32;;;;;;;31.54;51.17;100623.41;4980361;28;20042;-75
2021/07/12 10:46:29;;;;;;;6.18;4.13;;;;;;;31.52;51.06;100625.91;4991886;28;20053;-76
2021/07/12 10:49:03;;;;;;;4.85;4.25;;;;;;;31.25;51.21;100620.94;4987699;28;20038;-75
2021/07/12 10:51:34;;;;;;;4.22;3.92;;;;;;;31.32;51.23;100619.72;4971567;28;20058;-75
2021/07/12 10:54:11;;;;;;;;;;;;;;;30.75;52.34;100620.59;4989948;28;20040;-76
2021/07/12 10:56:57;;;;;;;6.30;4.80;;;;;;;31.27;52.04;100620.44;4991052;28;19917;-75
2021/07/12 10:59:31;;;;;;;6.15;4.78;;;;;;;31.01;52.63;100617.78;4987314;28;20415;-75
2021/07/12 11:01:58;;;;;;;6.47;4.32;;;;;;;30.91;52.55;100616.44;4983950;28;20042;-75
2021/07/12 11:04:35;;;;;;;8.25;4.50;;;;;;;30.80;52.96;100616.31;4987215;28;20026;-75
2021/07/12 11:07:07;;;;;;;7.72;4.90;;;;;;;30.71;53.38;100608.16;4988550;28;20120;-75
2021/07/12 11:10:03;;;;;;;6.07;4.75;;;;;;;30.67;53.48;100610.41;4987688;28;20391;-75
2021/07/12 11:12:29;;;;;;;5.55;4.35;;;;;;;30.78;54.00;100602.13;4987127;28;20049;-76
2021/07/12 11:15:08;;;;;;;4.50;4.10;;;;;;;30.80;52.06;100602.41;4985694;28;20562;-75
2021/07/12 11:17:49;;;;;;;7.15;4.57;;;;;;;31.17;52.58;100589.25;4988747;28;20038;-75
2021/07/12 11:20:15;;;;;;;4.63;4.22;;;;;;;31.38;53.63;100593.44;4985655;28;20035;-75
2021/07/12 11:22:53;;;;;;;4.70;4.30;;;;;;;31.81;52.86;100585.72;4990685;28;20113;-75
2021/07/12 11:25:43;;;;;;;4.60;4.20;;;;;;;31.69;49.84;100584.94;4977753;28;20046;-75
2021/07/12 11:28:14;;;;;;;4.50;4.10;;;;;;;31.60;52.56;100578.84;4985574;28;20066;-75
2021/07/12 11:30:41;;;;;;;7.10;4.07;;;;;;;31.54;51.42;100583.63;4989182;28;20092;-75
2021/07/12 11:33:07;;;;;;;5.75;4.00;;;;;;;31.18;50.79;100590.78;4987528;28;20037;-75